Galice, Oregon
Current Conditions -  °F | °C
As of 4:56 AM on Saturday 20 Dec 2014 (Local Time) from KSXT Reporting Station
Moderate Fog Moderate Fog  
Wind Chill: 27°   Ceiling: 200
Heat Index: 37°   Visibility: 0.25mi
Dew Point: 37°   Wind: 20mph
Humidity: 100%   Direction: 180°S
Pressure: 29.86"   Gusts: 32mph
Location:  42.5504°N, 123.448°W
Report Text: KSXT 201256Z AUTO 18017G28KT 1/4SM UP FG VV002 03/03 A2986 RMK AO2 PK WND 17029/1229 RAE25UPB54 SLP123 P0001 T00280028
Loading
Personal Weather Stations






























Interactive Weather Map New forecast layout! Learn more

10-Day Weather Forecast

Advertisements
Track Severe Weather on mobile